Time;durP1;ratioP1;P1;durP2;ratioP2;P2;SDS_P1;SDS_P2;PMS_P1;PMS_P2;Temp;Humidity;BMP_temperature;BMP_pressure;BME280_temperature;BME280_humidity;BME280_pressure;Samples;Min_cycle;Max_cycle;Signal;HPM_P1;HPM_P2
2022/04/20 00:02:25;;;;;;;4.40;3.20;;;11.20;75.40;;;;;;5091912;28;20288;-64
2022/04/20 00:04:53;;;;;;;3.88;2.63;;;11.20;75.50;;;;;;5092342;28;20223;-63
2022/04/20 00:07:21;;;;;;;7.40;4.60;;;11.10;76.00;;;;;;5090791;28;20239;-64
2022/04/20 00:09:49;;;;;;;7.03;4.45;;;11.10;76.00;;;;;;5101787;28;20235;-63
2022/04/20 00:12:15;;;;;;;5.05;3.60;;;11.10;76.50;;;;;;5091124;28;20686;-64
2022/04/20 00:14:42;;;;;;;5.40;3.80;;;11.10;76.70;;;;;;5092819;27;20219;-64
2022/04/20 00:17:10;;;;;;;7.15;4.45;;;11.00;77.10;;;;;;5089087;28;20219;-65
2022/04/20 00:19:37;;;;;;;6.13;4.40;;;11.00;77.40;;;;;;5092632;28;20219;-64
2022/04/20 00:22:05;;;;;;;4.13;3.78;;;11.00;77.90;;;;;;5092113;28;20234;-64
2022/04/20 00:24:32;;;;;;;4.00;3.60;;;10.90;78.10;;;;;;5092389;28;20227;-64
2022/04/20 00:26:59;;;;;;;5.22;3.97;;;10.90;78.10;;;;;;5092818;28;20273;-63
2022/04/20 00:29:25;;;;;;;3.42;3.13;;;10.90;78.60;;;;;;5092256;28;20223;-64
2022/04/20 00:31:52;;;;;;;5.97;3.70;;;10.80;79.10;;;;;;5092420;28;20817;-65
2022/04/20 00:34:21;;;;;;;3.60;3.10;;;10.80;79.10;;;;;;5092305;28;20223;-65
2022/04/20 00:36:55;;;;;;;5.40;3.47;;;10.80;79.60;;;;;;5092746;28;20223;-64
2022/04/20 00:39:25;;;;;;;6.18;3.78;;;10.80;80.00;;;;;;5092159;28;20310;-64
2022/04/20 00:41:53;;;;;;;3.90;3.60;;;10.80;80.10;;;;;;5092459;28;20232;-65
2022/04/20 00:44:21;;;;;;;3.40;3.10;;;10.80;80.30;;;;;;5089391;28;20227;-64
2022/04/20 00:46:48;;;;;;;4.85;3.90;;;10.80;80.90;;;;;;5087165;28;20666;-64
2022/04/20 00:49:15;;;;;;;7.53;3.50;;;10.70;80.90;;;;;;5092026;28;20230;-65
2022/04/20 00:51:53;;;;;;;4.13;3.25;;;10.80;81.00;;;;;;5081454;28;20547;-64
2022/04/20 00:54:20;;;;;;;3.47;3.15;;;10.70;81.40;;;;;;5092262;28;20230;-64
2022/04/20 00:56:47;;;;;;;3.03;2.78;;;10.70;81.80;;;;;;5088123;28;20223;-64
2022/04/20 00:59:16;;;;;;;6.88;3.65;;;10.70;82.10;;;;;;5082538;28;20223;-64
2022/04/20 01:01:43;;;;;;;4.38;3.78;;;10.70;82.50;;;;;;5089597;28;20223;-64
2022/04/20 01:04:10;;;;;;;8.80;3.38;;;10.60;82.80;;;;;;5092081;28;20230;-64
2022/04/20 01:06:37;;;;;;;6.03;3.42;;;10.60;82.80;;;;;;5092208;28;20294;-64
2022/04/20 01:09:06;;;;;;;4.88;3.97;;;10.60;83.00;;;;;;5102858;28;20234;-64
2022/04/20 01:11:33;;;;;;;3.65;3.20;;;10.60;83.30;;;;;;5094521;28;20215;-64
2022/04/20 01:13:59;;;;;;;4.60;3.72;;;10.60;83.30;;;;;;5092443;27;20231;-64
2022/04/20 01:16:26;;;;;;;3.92;3.13;;;10.60;83.40;;;;;;5091560;27;20216;-64
2022/04/20 01:18:54;;;;;;;4.65;3.10;;;10.60;83.30;;;;;;5092297;28;20685;-65
2022/04/20 01:21:24;;;;;;;3.97;3.58;;;10.60;83.00;;;;;;5094785;28;20258;-65
2022/04/20 01:23:51;;;;;;;3.63;2.65;;;10.60;82.90;;;;;;5096193;28;20651;-63
2022/04/20 01:26:17;;;;;;;4.93;3.35;;;10.60;83.00;;;;;;5094230;28;20250;-64
2022/04/20 01:28:47;;;;;;;7.40;5.13;;;10.70;83.20;;;;;;5094283;28;20246;-64
2022/04/20 01:31:15;;;;;;;8.40;4.15;;;10.70;83.60;;;;;;5094481;28;20727;-64
2022/04/20 01:33:43;;;;;;;3.67;3.38;;;10.70;83.60;;;;;;5095204;28;20227;-64
2022/04/20 01:36:10;;;;;;;4.75;4.28;;;10.60;83.70;;;;;;5094649;28;20250;-64
2022/04/20 01:38:39;;;;;;;5.18;4.18;;;10.70;83.90;;;;;;5094493;28;20215;-64
2022/04/20 01:41:07;;;;;;;4.95;3.70;;;10.60;84.20;;;;;;5093493;28;20231;-65
2022/04/20 01:43:33;;;;;;;3.35;3.15;;;10.60;84.30;;;;;;5093789;28;20226;-64
2022/04/20 01:46:00;;;;;;;5.65;3.90;;;10.60;84.40;;;;;;5093700;28;20588;-65
2022/04/20 01:48:27;;;;;;;4.90;4.05;;;10.60;84.80;;;;;;5093466;28;20219;-64
2022/04/20 01:53:39;;;;;;;5.75;4.20;;;10.50;85.40;;;;;;5094880;28;20269;-64
2022/04/20 01:56:07;;;;;;;5.78;3.95;;;10.50;85.90;;;;;;5095152;28;20649;-64
2022/04/20 01:58:34;;;;;;;5.72;3.60;;;10.50;86.30;;;;;;5094812;28;20231;-64
2022/04/20 02:02:34;;;;;;;4.07;3.78;;;10.40;87.00;;;;;;5095427;28;20231;-64
2022/04/20 02:03:47;;;;;;;5.70;4.65;;;10.50;87.20;;;;;;5095016;28;20224;-65
2022/04/20 02:06:14;;;;;;;4.83;3.80;;;10.50;87.40;;;;;;5095430;28;20230;-65
2022/04/20 02:08:42;;;;;;;4.30;3.58;;;10.40;87.70;;;;;;5094759;28;20284;-65
2022/04/20 02:11:09;;;;;;;5.13;3.33;;;10.50;87.80;;;;;;5095353;28;20244;-65
2022/04/20 02:13:36;;;;;;;6.03;4.25;;;10.40;88.10;;;;;;5094664;28;20238;-64
2022/04/20 02:16:03;;;;;;;4.90;3.22;;;10.40;88.40;;;;;;5094910;28;20231;-65
2022/04/20 02:18:31;;;;;;;4.25;3.85;;;10.40;88.60;;;;;;5094598;28;20235;-65
2022/04/20 02:20:57;;;;;;;4.82;4.28;;;10.40;88.90;;;;;;5094764;28;20228;-65
2022/04/20 02:23:24;;;;;;;5.30;3.95;;;10.50;89.30;;;;;;5094898;28;20230;-64
2022/04/20 02:25:52;;;;;;;3.58;3.25;;;10.50;89.10;;;;;;5094508;28;20220;-64
2022/04/20 02:28:19;;;;;;;3.92;3.63;;;10.50;89.50;;;;;;5094918;28;20564;-64
2022/04/20 02:30:46;;;;;;;3.60;3.33;;;10.50;89.80;;;;;;5094479;28;20231;-64
2022/04/20 02:33:13;;;;;;;5.45;4.20;;;10.50;89.60;;;;;;5093852;28;20220;-65
2022/04/20 02:35:41;;;;;;;4.90;3.40;;;10.50;89.70;;;;;;5094359;28;20219;-65
2022/04/20 02:38:10;;;;;;;7.25;5.93;;;10.60;89.90;;;;;;5094890;28;20224;-64
2022/04/20 02:40:37;;;;;;;5.65;4.10;;;10.70;90.00;;;;;;5094102;28;20216;-64
2022/04/20 02:43:05;;;;;;;7.15;3.72;;;10.80;90.00;;;;;;5094630;28;20220;-64
2022/04/20 02:45:32;;;;;;;5.85;4.10;;;10.80;89.90;;;;;;5094279;28;20223;-64
2022/04/20 02:47:59;;;;;;;5.32;3.63;;;10.90;90.00;;;;;;5094503;28;20224;-64
2022/04/20 02:50:25;;;;;;;5.68;3.90;;;10.90;90.00;;;;;;5094333;28;20220;-64
2022/04/20 02:52:52;;;;;;;6.57;4.68;;;10.90;90.00;;;;;;5094018;28;20238;-64
2022/04/20 02:55:19;;;;;;;4.93;3.70;;;11.00;90.00;;;;;;5094473;28;20689;-64
2022/04/20 02:57:46;;;;;;;4.95;4.20;;;11.00;89.90;;;;;;5093821;28;20215;-64
2022/04/20 03:00:15;;;;;;;4.20;3.80;;;11.10;90.00;;;;;;5094269;28;20227;-64
2022/04/20 03:02:43;;;;;;;4.38;3.35;;;11.10;90.00;;;;;;5093609;28;20700;-65
2022/04/20 03:05:09;;;;;;;6.07;3.80;;;11.20;89.90;;;;;;5094249;28;20234;-64
2022/04/20 03:07:36;;;;;;;5.55;3.50;;;11.20;89.90;;;;;;5093761;28;20230;-65
2022/04/20 03:10:04;;;;;;;6.82;4.75;;;11.20;89.60;;;;;;5093987;28;20673;-65
2022/04/20 03:12:31;;;;;;;7.68;4.20;;;11.20;90.00;;;;;;5093691;28;20227;-64
2022/04/20 03:14:58;;;;;;;4.68;4.20;;;11.20;90.10;;;;;;5093891;28;20308;-66
2022/04/20 03:17:26;;;;;;;4.60;4.22;;;11.20;90.30;;;;;;5093797;28;20219;-65
2022/04/20 03:19:53;;;;;;;6.30;4.32;;;11.20;90.40;;;;;;5093827;28;20298;-65
2022/04/20 03:22:21;;;;;;;8.43;5.72;;;11.20;90.40;;;;;;5093768;28;20215;-64
2022/04/20 03:24:48;;;;;;;6.53;4.70;;;11.20;90.50;;;;;;5093363;28;20231;-65
2022/04/20 03:27:15;;;;;;;3.85;3.47;;;11.20;90.70;;;;;;5093906;28;20674;-64
2022/04/20 03:29:42;;;;;;;5.00;4.00;;;11.20;90.80;;;;;;5093233;28;20268;-65
2022/04/20 03:32:10;;;;;;;6.15;5.07;;;11.20;90.80;;;;;;5093731;28;20232;-64
2022/04/20 03:34:39;;;;;;;9.30;5.03;;;11.10;90.80;;;;;;5093321;28;20215;-64
2022/04/20 03:37:06;;;;;;;6.15;5.03;;;11.10;90.90;;;;;;5093670;28;20219;-64
2022/04/20 03:39:34;;;;;;;3.85;3.55;;;11.10;91.30;;;;;;5093246;28;20273;-64
2022/04/20 03:42:00;;;;;;;5.45;4.10;;;11.10;91.20;;;;;;5093362;28;20220;-64
2022/04/20 03:44:27;;;;;;;5.75;4.40;;;11.10;91.30;;;;;;5093317;28;20677;-63
2022/04/20 03:46:54;;;;;;;6.63;4.70;;;11.10;91.30;;;;;;5093022;28;20227;-64
2022/04/20 03:49:21;;;;;;;4.78;4.00;;;11.10;91.40;;;;;;5093617;28;20242;-64
2022/04/20 03:51:50;;;;;;;5.55;4.35;;;11.10;91.40;;;;;;5092639;28;20231;-64
2022/04/20 03:54:17;;;;;;;5.97;5.15;;;11.10;91.60;;;;;;5093234;28;20230;-64
2022/04/20 03:59:28;;;;;;;7.55;5.80;;;11.10;91.90;;;;;;5093343;28;20291;-64
2022/04/20 04:01:55;;;;;;;5.00;4.55;;;11.10;92.00;;;;;;5092552;28;20227;-65
2022/04/20 04:04:22;;;;;;;7.35;4.25;;;11.10;92.10;;;;;;5093433;28;20223;-65
2022/04/20 04:06:50;;;;;;;5.13;4.57;;;11.10;92.20;;;;;;5092642;28;20257;-65
2022/04/20 04:09:17;;;;;;;6.97;5.05;;;11.20;92.40;;;;;;5093253;28;20738;-65
2022/04/20 04:11:44;;;;;;;7.32;5.55;;;11.20;92.50;;;;;;5092534;28;20233;-65
2022/04/20 04:14:11;;;;;;;6.85;4.50;;;11.20;92.70;;;;;;5093036;28;20215;-64
2022/04/20 04:16:38;;;;;;;6.60;5.30;;;11.10;92.80;;;;;;5092575;28;20669;-65
2022/04/20 04:19:05;;;;;;;5.57;5.03;;;11.20;93.00;;;;;;5092945;28;20220;-65
2022/04/20 04:21:35;;;;;;;6.38;5.70;;;11.10;93.10;;;;;;5092896;28;20231;-64
2022/04/20 04:24:03;;;;;;;5.90;5.35;;;11.20;93.20;;;;;;5092502;28;20219;-65
2022/04/20 04:26:30;;;;;;;6.53;5.57;;;11.30;93.20;;;;;;5093077;28;20230;-65
2022/04/20 04:28:57;;;;;;;7.85;5.43;;;11.30;93.40;;;;;;5092489;28;20227;-64
2022/04/20 04:31:24;;;;;;;6.43;5.05;;;11.30;93.20;;;;;;5092675;28;20227;-64
2022/04/20 04:33:51;;;;;;;6.28;5.68;;;11.30;93.30;;;;;;5092576;28;20228;-64
2022/04/20 04:36:18;;;;;;;6.72;5.47;;;11.30;93.40;;;;;;5092867;28;20211;-64
2022/04/20 04:38:45;;;;;;;5.75;5.07;;;11.30;93.40;;;;;;5092110;28;20219;-64
2022/04/20 04:41:13;;;;;;;5.15;4.75;;;11.30;93.50;;;;;;5092781;28;20219;-65
2022/04/20 04:43:40;;;;;;;5.93;5.32;;;11.30;93.50;;;;;;5092426;28;20226;-65
2022/04/20 04:48:51;;;;;;;6.72;5.05;;;11.40;93.60;;;;;;5092358;28;20353;-65
2022/04/20 04:51:18;;;;;;;6.40;5.60;;;11.40;93.70;;;;;;5092421;28;20229;-65
2022/04/20 04:53:45;;;;;;;7.32;5.95;;;11.40;93.80;;;;;;5092313;28;20223;-64
2022/04/20 04:56:13;;;;;;;5.50;4.85;;;11.40;93.80;;;;;;5095831;28;20238;-65
2022/04/20 04:58:40;;;;;;;5.35;4.85;;;11.40;93.80;;;;;;5096135;28;20226;-65
2022/04/20 05:01:07;;;;;;;5.70;5.10;;;11.50;93.80;;;;;;5096231;28;20696;-65
2022/04/20 05:03:34;;;;;;;5.75;5.15;;;11.50;93.70;;;;;;5096520;28;20234;-64
2022/04/20 05:06:00;;;;;;;9.05;5.47;;;11.50;93.70;;;;;;5096016;28;20219;-64
2022/04/20 05:08:27;;;;;;;6.30;5.40;;;11.50;93.70;;;;;;5096527;28;20241;-64
2022/04/20 05:10:54;;;;;;;5.55;4.88;;;11.60;93.90;;;;;;5096007;28;20223;-64
2022/04/20 05:13:22;;;;;;;7.20;5.28;;;11.60;93.90;;;;;;5096364;28;20235;-64
2022/04/20 05:15:49;;;;;;;7.82;5.53;;;11.60;93.90;;;;;;5095851;28;20223;-64
2022/04/20 05:18:16;;;;;;;5.90;5.32;;;11.60;93.90;;;;;;5096388;28;20230;-64
2022/04/20 05:20:43;;;;;;;6.70;5.47;;;11.70;93.80;;;;;;5095836;28;20227;-64
2022/04/20 05:23:09;;;;;;;5.63;5.13;;;11.70;93.80;;;;;;5095940;28;20303;-64
2022/04/20 05:25:36;;;;;;;6.68;5.32;;;11.70;93.80;;;;;;5096344;28;20215;-64
2022/04/20 05:28:03;;;;;;;5.72;5.13;;;11.70;93.70;;;;;;5095595;28;20219;-64
2022/04/20 05:30:31;;;;;;;9.90;6.00;;;11.80;93.70;;;;;;5096136;28;20565;-64
2022/04/20 05:32:58;;;;;;;5.90;5.40;;;11.70;93.70;;;;;;5095444;28;20234;-64
2022/04/20 05:35:25;;;;;;;6.50;5.32;;;11.70;93.70;;;;;;5095956;28;20230;-65
2022/04/20 05:43:20;;;;;;;5.63;5.07;;;11.70;93.90;;;;;;5096279;28;20230;-64
2022/04/20 05:45:50;;;;;;;6.85;6.15;;;11.70;93.90;;;;;;5095250;28;20230;-66
2022/04/20 05:48:17;;;;;;;7.55;6.80;;;11.70;94.00;;;;;;5095562;28;20246;-64
2022/04/20 05:50:44;;;;;;;6.60;5.32;;;11.70;93.90;;;;;;5095175;28;20235;-65
2022/04/20 05:53:12;;;;;;;8.15;5.18;;;11.80;94.00;;;;;;5095675;28;20669;-65
2022/04/20 05:55:39;;;;;;;5.60;4.78;;;11.70;93.80;;;;;;5095188;28;20231;-65
2022/04/20 05:58:06;;;;;;;6.13;5.47;;;11.70;93.90;;;;;;5095414;28;20219;-64
2022/04/20 06:00:33;;;;;;;6.60;6.00;;;11.70;93.90;;;;;;5095101;28;20245;-65
2022/04/20 06:03:01;;;;;;;7.55;5.35;;;11.70;94.10;;;;;;5095360;28;20230;-65
2022/04/20 06:05:28;;;;;;;7.80;5.70;;;11.70;94.00;;;;;;5095238;28;20696;-64
2022/04/20 06:07:55;;;;;;;9.38;6.00;;;11.70;94.10;;;;;;5094286;28;20235;-64
2022/04/20 06:10:22;;;;;;;9.50;6.00;;;11.70;94.10;;;;;;5095120;28;20216;-65
2022/04/20 06:12:49;;;;;;;8.30;5.80;;;11.70;94.10;;;;;;5095012;28;20230;-65
2022/04/20 06:15:17;;;;;;;8.18;6.45;;;11.60;94.10;;;;;;5075140;28;20243;-64
2022/04/20 06:17:44;;;;;;;8.93;6.75;;;11.70;94.20;;;;;;5074328;28;20228;-65
2022/04/20 06:20:12;;;;;;;7.75;6.15;;;11.70;94.10;;;;;;5074878;28;20223;-65
2022/04/20 06:22:39;;;;;;;6.25;5.63;;;11.70;94.10;;;;;;5074229;28;20235;-64
2022/04/20 06:25:07;;;;;;;6.28;5.68;;;11.80;93.80;;;;;;5074977;28;20228;-64
2022/04/20 06:27:34;;;;;;;6.50;5.75;;;11.80;93.60;;;;;;5074342;28;20564;-65
2022/04/20 06:30:00;;;;;;;6.15;4.88;;;11.90;93.50;;;;;;5074633;28;20220;-65
2022/04/20 06:32:28;;;;;;;6.63;6.03;;;12.00;93.30;;;;;;5080001;28;20207;-65
2022/04/20 06:34:55;;;;;;;7.03;5.25;;;12.10;93.20;;;;;;5094877;28;20219;-65
2022/04/20 06:37:24;;;;;;;7.68;5.20;;;12.10;93.00;;;;;;5094744;28;20231;-64
2022/04/20 06:39:51;;;;;;;6.22;5.40;;;12.20;92.70;;;;;;5094516;28;20215;-64
2022/04/20 06:42:18;;;;;;;5.03;4.53;;;12.10;92.30;;;;;;5094401;28;20566;-66
2022/04/20 06:44:45;;;;;;;11.02;5.07;;;12.10;92.40;;;;;;5094261;28;20734;-65
2022/04/20 06:47:12;;;;;;;6.00;5.50;;;12.10;92.10;;;;;;5094401;28;20219;-65
2022/04/20 06:49:38;;;;;;;6.80;5.60;;;12.10;92.20;;;;;;5094031;28;20215;-66
2022/04/20 07:00:17;;;;;;;6.10;5.50;;;12.40;91.90;;;;;;5094399;28;20564;-65
2022/04/20 07:02:44;;;;;;;5.63;5.03;;;12.40;91.60;;;;;;5093787;28;20232;-64
2022/04/20 07:05:11;;;;;;;5.18;4.68;;;12.50;91.50;;;;;;5094228;28;20215;-64
2022/04/20 07:07:38;;;;;;;5.13;4.63;;;12.60;91.30;;;;;;5093801;28;20245;-65
2022/04/20 07:10:07;;;;;;;4.78;4.13;;;12.70;91.30;;;;;;5093867;28;20222;-64
2022/04/20 07:12:34;;;;;;;5.70;5.20;;;12.80;91.10;;;;;;5093597;28;20227;-65
2022/04/20 07:15:01;;;;;;;7.93;5.00;;;12.90;90.90;;;;;;5094129;28;20219;-65
2022/04/20 07:17:27;;;;;;;7.13;4.72;;;12.90;90.50;;;;;;5093558;28;20223;-64
2022/04/20 07:19:54;;;;;;;5.38;4.70;;;13.00;90.30;;;;;;5093728;27;20230;-65
2022/04/20 07:22:21;;;;;;;4.40;3.97;;;13.00;90.10;;;;;;5093896;28;20765;-65
2022/04/20 07:24:48;;;;;;;6.53;3.72;;;13.10;90.10;;;;;;5093438;28;20223;-64
2022/04/20 07:27:19;;;;;;;4.70;4.05;;;13.10;90.00;;;;;;5093635;28;20227;-64
2022/04/20 07:29:46;;;;;;;4.63;4.22;;;13.10;89.40;;;;;;5093559;28;20227;-64
2022/04/20 07:32:12;;;;;;;5.57;4.45;;;13.10;89.00;;;;;;5093518;28;20238;-64
2022/04/20 07:34:39;;;;;;;4.50;4.10;;;13.00;88.90;;;;;;5093306;28;20230;-64
2022/04/20 07:37:06;;;;;;;4.20;3.80;;;13.10;89.00;;;;;;5093770;28;20216;-65
2022/04/20 07:39:33;;;;;;;5.30;4.35;;;13.10;88.90;;;;;;5093280;28;20294;-64
2022/04/20 07:42:00;;;;;;;4.80;4.30;;;13.10;88.90;;;;;;5093370;28;20226;-65
2022/04/20 07:44:28;;;;;;;7.50;4.50;;;13.00;89.00;;;;;;5093608;28;20215;-65
2022/04/20 07:46:55;;;;;;;5.70;4.53;;;13.10;89.10;;;;;;5092910;28;20219;-65
2022/04/20 07:52:07;;;;;;;4.93;4.45;;;13.10;87.80;;;;;;5093013;28;20234;-65
2022/04/20 07:54:34;;;;;;;6.00;4.30;;;13.10;88.00;;;;;;5093410;28;20219;-65
2022/04/20 07:57:01;;;;;;;4.47;3.95;;;13.10;87.60;;;;;;5093034;28;20272;-64
2022/04/20 07:59:29;;;;;;;4.50;4.05;;;13.20;87.40;;;;;;5093164;28;20219;-64
2022/04/20 08:01:56;;;;;;;4.97;3.80;;;13.30;87.20;;;;;;5092591;28;20242;-64
2022/04/20 08:04:23;;;;;;;4.57;4.13;;;13.40;86.80;;;;;;5093407;28;20223;-64
2022/04/20 08:06:50;;;;;;;4.05;3.65;;;13.50;86.40;;;;;;5092858;28;20222;-65
2022/04/20 08:09:17;;;;;;;4.68;3.88;;;13.50;85.20;;;;;;5092984;28;20226;-65
2022/04/20 08:11:43;;;;;;;4.57;4.00;;;13.60;83.30;;;;;;5092373;28;20223;-65
2022/04/20 08:14:10;;;;;;;3.83;3.50;;;13.70;83.00;;;;;;5093179;28;20219;-65
2022/04/20 08:16:39;;;;;;;4.35;3.35;;;13.80;82.00;;;;;;5092950;28;20219;-64
2022/04/20 08:19:07;;;;;;;3.97;3.70;;;13.80;81.60;;;;;;5092389;28;20223;-65
2022/04/20 08:21:34;;;;;;;3.97;3.67;;;13.90;81.50;;;;;;5093133;28;20658;-65
2022/04/20 08:24:01;;;;;;;4.13;2.72;;;14.00;81.30;;;;;;5092489;28;20466;-65
2022/04/20 08:26:28;;;;;;;3.28;2.97;;;14.10;78.70;;;;;;5092913;28;20223;-65
2022/04/20 08:28:54;;;;;;;5.40;2.73;;;14.20;76.70;;;;;;5092482;28;20231;-65
2022/04/20 08:31:21;;;;;;;5.70;2.70;;;14.30;74.10;;;;;;5092212;28;20998;-65
2022/04/20 08:33:49;;;;;;;2.53;2.33;;;14.30;72.00;;;;;;5092539;28;20461;-64
2022/04/20 08:36:17;;;;;;;3.70;2.40;;;14.30;71.30;;;;;;5093161;28;20803;-65
2022/04/20 08:38:44;;;;;;;2.63;2.13;;;14.30;71.00;;;;;;5092807;28;20835;-65
2022/04/20 08:41:13;;;;;;;3.43;2.43;;;14.40;70.60;;;;;;5092468;28;20493;-65
2022/04/20 08:43:41;;;;;;;2.97;2.10;;;14.40;70.20;;;;;;5092810;28;20510;-65
2022/04/20 08:46:09;;;;;;;4.33;2.10;;;14.40;69.90;;;;;;5092210;28;20508;-65
2022/04/20 08:48:37;;;;;;;2.93;2.73;;;14.50;70.00;;;;;;5092815;28;20522;-65
2022/04/20 08:51:07;;;;;;;2.80;2.27;;;14.50;70.00;;;;;;5092194;28;20465;-65
2022/04/20 08:53:34;;;;;;;4.97;2.00;;;14.50;70.20;;;;;;5092572;28;20465;-66
2022/04/20 08:58:49;;;;;;;3.97;2.43;;;14.50;69.80;;;;;;5092606;28;20488;-65
2022/04/20 09:01:17;;;;;;;2.20;2.00;;;14.30;69.70;;;;;;5092245;28;20457;-65
2022/04/20 09:03:46;;;;;;;2.47;2.27;;;14.30;70.60;;;;;;5092526;28;20461;-65
2022/04/20 09:06:15;;;;;;;3.73;2.63;;;14.40;71.70;;;;;;5092315;28;20511;-64
2022/04/20 09:08:43;;;;;;;4.47;2.70;;;14.30;72.70;;;;;;5092608;28;20475;-66
2022/04/20 09:11:09;;;;;;;3.80;3.00;;;14.30;73.20;;;;;;5091887;28;20499;-65
2022/04/20 09:13:41;;;;;;;4.77;2.53;;;14.30;73.90;;;;;;5092494;28;20476;-65
2022/04/20 09:16:09;;;;;;;3.10;2.80;;;14.30;74.90;;;;;;5092132;28;20461;-65
2022/04/20 09:18:37;;;;;;;4.10;3.03;;;14.30;75.80;;;;;;5092466;28;20935;-65
2022/04/20 09:21:07;;;;;;;3.30;2.43;;;14.30;76.40;;;;;;5091897;28;20936;-65
2022/04/20 09:23:35;;;;;;;2.83;2.33;;;14.20;77.10;;;;;;5092280;28;20815;-64
2022/04/20 09:26:09;;;;;;;3.50;2.83;;;14.10;79.30;;;;;;5091984;28;20816;-65
2022/04/20 09:28:36;;;;;;;2.93;2.73;;;14.00;80.10;;;;;;5092242;28;20460;-65
2022/04/20 09:31:04;;;;;;;2.55;2.35;;;14.00;82.10;;;;;;5091911;28;21037;-66
2022/04/20 09:33:43;;;;;;;3.50;2.97;;;14.00;83.80;;;;;;5092333;28;20223;-65
2022/04/20 09:36:10;;;;;;;3.08;2.88;;;14.00;84.70;;;;;;5091842;28;20280;-65
2022/04/20 09:38:41;;;;;;;3.20;2.90;;;14.00;85.50;;;;;;5092308;28;20223;-65
2022/04/20 09:41:09;;;;;;;5.63;3.10;;;14.00;86.30;;;;;;5092833;28;20270;-64
2022/04/20 09:43:36;;;;;;;7.53;3.00;;;14.10;87.50;;;;;;5095648;28;20698;-64
2022/04/20 09:46:05;;;;;;;6.03;3.23;;;14.10;88.70;;;;;;5095278;28;20472;-64
2022/04/20 09:51:20;;;;;;;6.00;3.03;;;14.10;88.70;;;;;;5095236;28;20803;-66
2022/04/20 09:53:50;;;;;;;6.27;2.80;;;14.10;88.80;;;;;;5095562;28;20488;-64
2022/04/20 09:56:21;;;;;;;3.15;2.85;;;14.20;87.70;;;;;;5095030;28;20487;-64
2022/04/20 09:58:58;;;;;;;3.40;2.90;;;14.20;88.00;;;;;;5095475;28;20227;-65
2022/04/20 10:01:27;;;;;;;2.90;2.70;;;14.20;88.00;;;;;;5095176;28;20453;-64
2022/04/20 10:03:55;;;;;;;2.53;2.33;;;14.20;87.10;;;;;;5095186;28;20466;-65
2022/04/20 10:06:22;;;;;;;3.47;3.17;;;14.30;86.90;;;;;;5094983;28;20243;-65
2022/04/20 10:08:50;;;;;;;3.90;3.45;;;14.30;87.30;;;;;;5095134;28;20470;-65
2022/04/20 10:11:17;;;;;;;4.68;2.95;;;14.30;87.20;;;;;;5094591;28;20239;-65
2022/04/20 10:13:46;;;;;;;2.97;2.15;;;14.30;88.00;;;;;;5095228;28;20234;-65
2022/04/20 10:16:13;;;;;;;2.97;2.67;;;14.30;87.30;;;;;;5094594;28;20238;-65
2022/04/20 10:18:41;;;;;;;2.87;2.67;;;14.30;86.30;;;;;;5095107;28;20295;-66
2022/04/20 10:21:11;;;;;;;5.33;3.20;;;14.40;87.30;;;;;;5094581;28;20473;-65
2022/04/20 10:23:42;;;;;;;3.73;2.30;;;14.40;87.50;;;;;;5094985;28;20469;-65
2022/04/20 10:26:12;;;;;;;4.00;3.67;;;14.40;88.40;;;;;;5094583;28;20979;-65
2022/04/20 10:28:46;;;;;;;3.43;3.13;;;14.40;89.40;;;;;;5095095;28;20461;-65
2022/04/20 10:31:20;;;;;;;3.20;2.90;;;14.40;90.50;;;;;;5094501;28;20963;-65
2022/04/20 10:33:48;;;;;;;3.30;3.00;;;14.50;90.70;;;;;;5094702;28;20461;-65
2022/04/20 10:36:17;;;;;;;4.47;2.90;;;14.50;91.60;;;;;;5094635;28;20510;-64
2022/04/20 10:38:45;;;;;;;3.77;3.47;;;14.50;91.90;;;;;;5094880;28;20987;-65
2022/04/20 10:41:17;;;;;;;5.00;4.10;;;14.50;92.40;;;;;;5094212;28;20960;-64
2022/04/20 10:43:45;;;;;;;3.60;3.27;;;14.50;93.20;;;;;;5094388;28;20457;-65
2022/04/20 10:46:16;;;;;;;5.30;4.77;;;14.40;93.00;;;;;;5085216;28;20481;-64
2022/04/20 10:48:48;;;;;;;3.80;3.50;;;14.40;92.90;;;;;;5092015;28;20476;-65
2022/04/20 10:51:17;;;;;;;3.07;2.87;;;14.40;93.10;;;;;;5085107;28;20557;-64
2022/04/20 10:53:46;;;;;;;5.13;3.60;;;14.30;92.70;;;;;;5072710;28;20471;-65
2022/04/20 10:56:14;;;;;;;5.10;3.20;;;14.30;92.90;;;;;;5073094;28;20498;-65
2022/04/20 10:59:08;;;;;;;3.57;3.27;;;14.20;93.30;;;;;;5073158;28;20983;-65
2022/04/20 11:02:23;;;;;;;3.50;3.20;;;14.30;93.60;;;;;;5073540;28;20465;-65
2022/04/20 11:04:50;;;;;;;5.73;3.23;;;14.30;93.70;;;;;;5032466;28;20249;-64
2022/04/20 11:07:26;;;;;;;4.87;3.07;;;14.30;93.60;;;;;;5032054;28;20467;-63
2022/04/20 11:10:06;;;;;;;3.97;3.57;;;14.30;93.40;;;;;;5053189;28;20474;-64
2022/04/20 11:18:42;;;;;;;3.33;3.13;;;14.50;92.60;;;;;;5072111;28;20825;-64
2022/04/20 11:21:13;;;;;;;4.33;3.93;;;14.60;91.90;;;;;;5082647;28;20457;-64
2022/04/20 11:23:57;;;;;;;6.97;4.80;;;14.70;92.00;;;;;;5091733;28;20473;-64
2022/04/20 11:26:28;;;;;;;6.27;4.87;;;14.70;92.30;;;;;;5088247;28;20568;-64
2022/04/20 11:28:57;;;;;;;5.53;3.97;;;14.80;92.30;;;;;;5085821;28;20823;-64
2022/04/20 11:31:24;;;;;;;3.93;3.47;;;14.90;91.40;;;;;;5076868;28;20473;-64
2022/04/20 11:33:53;;;;;;;4.67;4.27;;;14.90;90.90;;;;;;5075698;28;20466;-65
2022/04/20 11:36:20;;;;;;;4.70;3.57;;;14.90;90.80;;;;;;5080986;28;20465;-65
2022/04/20 11:38:48;;;;;;;8.83;3.50;;;15.00;90.90;;;;;;5082133;28;20769;-65
2022/04/20 11:41:17;;;;;;;4.30;3.90;;;15.10;90.80;;;;;;5091173;28;20470;-65
2022/04/20 11:43:44;;;;;;;6.13;3.93;;;15.10;90.80;;;;;;5084225;28;20477;-65
2022/04/20 11:46:14;;;;;;;4.20;3.80;;;15.10;90.30;;;;;;5088529;28;20879;-65
2022/04/20 11:48:50;;;;;;;4.63;4.00;;;15.10;90.30;;;;;;5085897;28;20556;-63
2022/04/20 11:51:22;;;;;;;3.93;3.53;;;15.20;90.70;;;;;;5087894;28;20464;-63
2022/04/20 11:53:49;;;;;;;3.50;3.13;;;15.20;90.70;;;;;;5087583;28;20493;-64
2022/04/20 11:56:17;;;;;;;6.00;4.97;;;15.20;90.30;;;;;;5077505;28;20474;-64
2022/04/20 11:58:49;;;;;;;7.17;6.40;;;15.30;90.30;;;;;;5076987;28;20475;-65
2022/04/20 12:01:18;;;;;;;5.07;3.50;;;15.30;90.40;;;;;;5092677;28;20469;-64
2022/04/20 12:03:45;;;;;;;3.40;3.10;;;15.40;89.80;;;;;;5089504;28;20473;-65
2022/04/20 12:06:12;;;;;;;4.17;3.77;;;15.40;89.20;;;;;;5089765;28;20474;-65
2022/04/20 12:08:42;;;;;;;3.87;3.20;;;15.50;88.40;;;;;;5086329;28;20523;-65
2022/04/20 12:11:11;;;;;;;3.83;3.20;;;15.60;87.50;;;;;;5090412;28;20496;-65
2022/04/20 12:13:39;;;;;;;4.80;4.00;;;15.60;87.10;;;;;;5084788;28;20453;-65
2022/04/20 12:16:08;;;;;;;3.70;3.37;;;15.60;86.80;;;;;;5077205;28;20450;-65
2022/04/20 12:18:40;;;;;;;6.13;4.13;;;15.60;87.10;;;;;;5084749;28;20469;-65
2022/04/20 12:21:28;;;;;;;6.43;4.03;;;15.60;86.60;;;;;;5074618;28;20549;-64
2022/04/20 12:23:56;;;;;;;8.70;5.77;;;15.60;86.90;;;;;;5089170;28;20473;-64
2022/04/20 12:26:27;;;;;;;4.90;4.50;;;15.70;86.30;;;;;;5082467;28;20978;-64
2022/04/20 12:28:59;;;;;;;4.00;3.60;;;15.70;85.10;;;;;;5087073;28;20473;-64
2022/04/20 12:31:26;;;;;;;3.63;3.10;;;15.70;84.80;;;;;;5085512;28;20465;-64
2022/04/20 12:34:02;;;;;;;3.80;3.50;;;15.80;85.00;;;;;;5082364;28;20466;-63
2022/04/20 12:36:31;;;;;;;3.73;3.43;;;15.80;85.30;;;;;;5082633;28;20465;-63
2022/04/20 12:38:58;;;;;;;5.33;4.20;;;15.80;85.00;;;;;;5082651;28;20469;-63
2022/04/20 12:41:41;;;;;;;5.00;4.60;;;15.90;85.50;;;;;;5078479;28;20509;-64
2022/04/20 12:44:48;;;;;;;9.03;7.30;;;16.00;85.50;;;;;;5084313;28;20493;-64
2022/04/20 12:47:40;;;;;;;4.53;3.90;;;16.10;85.10;;;;;;5078249;28;20550;-64
2022/04/20 12:50:24;;;;;;;3.33;3.03;;;16.20;84.20;;;;;;5088031;28;20956;-64
2022/04/20 12:52:56;;;;;;;11.87;4.20;;;16.20;83.40;;;;;;5077681;28;20459;-64
2022/04/20 12:55:23;;;;;;;7.77;5.50;;;16.20;83.60;;;;;;5090191;28;20465;-65
2022/04/20 13:03:31;;;;;;;3.73;3.40;;;16.40;83.00;;;;;;5078101;28;20469;-65
2022/04/20 13:05:59;;;;;;;6.70;4.93;;;16.40;81.50;;;;;;5085618;28;20457;-65
2022/04/20 13:08:26;;;;;;;4.93;3.70;;;16.40;81.20;;;;;;5085867;28;20832;-64
2022/04/20 13:10:54;;;;;;;4.73;4.27;;;16.40;81.00;;;;;;5085208;28;20534;-64
2022/04/20 13:13:24;;;;;;;5.37;3.53;;;16.40;81.10;;;;;;5081179;28;20475;-64
2022/04/20 13:15:51;;;;;;;4.97;4.47;;;16.40;81.40;;;;;;5080871;28;20469;-64
2022/04/20 13:18:18;;;;;;;4.27;3.87;;;16.40;81.60;;;;;;5082448;28;20477;-64
2022/04/20 13:20:45;;;;;;;4.17;3.80;;;16.50;81.20;;;;;;5089115;28;20469;-64
2022/04/20 13:23:13;;;;;;;3.30;3.03;;;16.50;80.90;;;;;;5085791;28;20469;-64
2022/04/20 13:28:25;;;;;;;6.07;4.33;;;16.50;78.90;;;;;;5085680;28;20802;-65
2022/04/20 13:30:52;;;;;;;3.83;3.33;;;16.50;79.00;;;;;;5089237;28;20469;-64
2022/04/20 13:33:20;;;;;;;3.80;3.50;;;16.50;78.30;;;;;;5087065;28;20466;-64
2022/04/20 13:35:50;;;;;;;4.43;3.70;;;16.50;78.50;;;;;;5095087;28;20513;-65
2022/04/20 13:38:18;;;;;;;4.20;3.80;;;16.50;78.10;;;;;;5095524;28;20791;-64
2022/04/20 13:40:45;;;;;;;3.17;2.97;;;16.50;78.20;;;;;;5095017;28;20476;-64